Time;durP1;ratioP1;P1;durP2;ratioP2;P2;SDS_P1;SDS_P2;PMS_P1;PMS_P2;Temp;Humidity;BMP_temperature;BMP_pressure;BME280_temperature;BME280_humidity;BME280_pressure;Samples;Min_cycle;Max_cycle;Signal;HPM_P1;HPM_P2
2023/10/26 00:00:23;;;;;;;8.05;4.30;;;;;;;13.49;nan;99229.69;5018140;28;20475;-72
2023/10/26 00:02:48;;;;;;;9.02;5.10;;;;;;;13.71;nan;99261.03;5016212;28;20053;-72
2023/10/26 00:05:14;;;;;;;12.95;5.25;;;;;;;13.59;nan;99245.50;5014554;28;20072;-71
2023/10/26 00:07:40;;;;;;;10.27;4.60;;;;;;;13.74;nan;99266.59;5016613;28;20030;-71
2023/10/26 00:10:06;;;;;;;8.13;4.00;;;;;;;13.69;nan;99249.94;5018370;28;20033;-71
2023/10/26 00:12:32;;;;;;;8.10;3.67;;;;;;;13.66;nan;99250.50;5018734;28;20544;-71
2023/10/26 00:14:58;;;;;;;8.57;3.72;;;;;;;13.74;nan;99260.47;5016500;28;20021;-70
2023/10/26 00:17:24;;;;;;;7.15;3.58;;;;;;;13.71;nan;99251.25;5019854;28;20128;-71
2023/10/26 00:19:49;;;;;;;6.47;3.20;;;;;;;13.73;nan;99258.91;5016593;28;20143;-71
2023/10/26 00:22:15;;;;;;;7.35;3.72;;;;;;;13.69;nan;99245.44;5016586;28;20523;-71
2023/10/26 00:24:40;;;;;;;7.53;3.35;;;;;;;13.57;nan;99223.81;5016537;28;20038;-71
2023/10/26 00:27:06;;;;;;;7.93;3.28;;;;;;;13.66;nan;99245.97;5013933;28;20056;-70
2023/10/26 00:29:31;;;;;;;8.25;3.50;;;;;;;13.62;nan;99237.00;5017288;28;20026;-70
2023/10/26 00:31:56;;;;;;;7.10;3.13;;;;;;;13.58;nan;99233.34;5016482;28;20030;-71
2023/10/26 00:34:22;;;;;;;8.50;3.47;;;;;;;13.53;nan;99223.59;5020762;28;20017;-72
2023/10/26 00:36:47;;;;;;;7.63;3.38;;;;;;;13.47;nan;99208.78;5017213;28;20744;-72
2023/10/26 00:39:13;;;;;;;4.78;3.03;;;;;;;13.49;nan;99211.97;5018363;28;20842;-72
2023/10/26 00:41:38;;;;;;;6.65;3.28;;;;;;;13.46;nan;99214.38;5016290;28;20543;-71
2023/10/26 00:44:04;;;;;;;6.18;3.17;;;;;;;13.52;nan;99224.63;5017947;28;20104;-71
2023/10/26 00:46:30;;;;;;;8.90;3.40;;;;;;;13.57;nan;99219.31;5013515;28;20033;-71
2023/10/26 00:48:56;;;;;;;4.97;3.03;;;;;;;13.54;nan;99219.84;5016483;28;20141;-72
2023/10/26 00:51:22;;;;;;;9.07;2.70;;;;;;;13.58;nan;99220.91;5016946;28;20028;-72
2023/10/26 00:53:48;;;;;;;5.35;3.05;;;;;;;13.35;nan;99174.75;5016974;28;20025;-72
2023/10/26 00:56:16;;;;;;;5.25;2.40;;;;;;;13.51;nan;99195.81;5017557;28;20049;-72
2023/10/26 00:58:42;;;;;;;10.50;3.63;;;;;;;13.56;nan;99201.88;5016502;28;20151;-72
2023/10/26 01:01:07;;;;;;;5.70;2.60;;;;;;;13.63;nan;99208.72;5015377;28;20033;-72
2023/10/26 01:03:34;;;;;;;6.00;2.50;;;;;;;13.66;nan;99216.09;5016998;28;20044;-71
2023/10/26 01:05:59;;;;;;;6.15;2.60;;;;;;;13.64;nan;99212.94;5017374;28;20092;-72
2023/10/26 01:08:25;;;;;;;9.65;2.97;;;;;;;13.71;nan;99226.66;5019392;28;20054;-71
2023/10/26 01:10:50;;;;;;;5.63;2.40;;;;;;;13.66;nan;99214.25;5018433;28;20126;-72
2023/10/26 01:13:17;;;;;;;4.55;2.53;;;;;;;13.73;nan;99237.75;5017860;28;20029;-72
2023/10/26 01:15:42;;;;;;;7.03;2.75;;;;;;;13.76;nan;99243.28;5017853;28;20156;-72
2023/10/26 01:18:08;;;;;;;6.32;2.50;;;;;;;13.78;nan;99232.44;5017263;28;20499;-73
2023/10/26 01:20:33;;;;;;;5.03;2.72;;;;;;;13.81;nan;99229.22;5021284;28;20365;-71
2023/10/26 01:22:59;;;;;;;7.07;2.63;;;;;;;13.77;nan;99221.06;5012346;28;20034;-71
2023/10/26 01:25:24;;;;;;;6.97;3.33;;;;;;;13.70;nan;99202.06;5014570;28;20669;-71
2023/10/26 01:27:50;;;;;;;5.35;2.75;;;;;;;13.78;nan;99219.97;5014681;28;20480;-71
2023/10/26 01:30:16;;;;;;;8.23;2.67;;;;;;;13.74;nan;99215.50;5017595;28;20737;-70
2023/10/26 01:32:42;;;;;;;5.20;2.67;;;;;;;13.80;nan;99230.31;5017083;28;20427;-71
2023/10/26 01:35:08;;;;;;;3.65;2.45;;;;;;;13.75;nan;99228.47;5015386;28;20069;-71
2023/10/26 01:37:33;;;;;;;6.22;2.60;;;;;;;13.70;nan;99220.56;5015363;28;20029;-71
2023/10/26 01:39:59;;;;;;;6.80;2.35;;;;;;;13.74;nan;99218.16;5014229;28;20021;-71
2023/10/26 01:42:24;;;;;;;4.95;2.40;;;;;;;13.62;nan;99205.25;5014119;28;20025;-70
2023/10/26 01:44:50;;;;;;;6.80;2.70;;;;;;;13.64;nan;99211.06;5016524;28;20034;-71
2023/10/26 01:47:17;;;;;;;4.90;2.70;;;;;;;13.51;nan;99204.53;5012038;28;20038;-71
2023/10/26 01:49:44;;;;;;;6.20;2.65;;;;;;;13.46;nan;99207.22;5014255;28;20049;-71
2023/10/26 01:52:09;;;;;;;4.20;2.40;;;;;;;13.32;nan;99201.72;5015788;28;20033;-71
2023/10/26 01:54:35;;;;;;;5.10;2.47;;;;;;;13.46;nan;99206.44;5013873;28;20026;-72
2023/10/26 01:57:00;;;;;;;7.75;2.47;;;;;;;13.44;nan;99212.00;5014089;28;20124;-72
2023/10/26 01:59:26;;;;;;;5.30;2.60;;;;;;;13.48;nan;99218.31;5019798;28;20226;-71
2023/10/26 02:01:51;;;;;;;4.97;2.35;;;;;;;13.52;nan;99235.22;5015335;28;20039;-71
2023/10/26 02:04:16;;;;;;;6.80;2.65;;;;;;;13.50;nan;99220.69;5013891;28;20028;-71
2023/10/26 02:06:42;;;;;;;6.05;2.60;;;;;;;13.53;nan;99222.78;5015086;28;20026;-71
2023/10/26 02:09:07;;;;;;;3.50;2.42;;;;;;;13.47;nan;99213.28;5013253;28;20033;-72
2023/10/26 02:11:32;;;;;;;7.22;2.40;;;;;;;13.52;nan;99214.06;5016073;28;20400;-70
2023/10/26 02:13:58;;;;;;;5.43;2.63;;;;;;;13.49;nan;99213.81;5013466;28;20057;-72
2023/10/26 02:16:23;;;;;;;5.55;2.78;;;;;;;13.53;nan;99228.09;5016788;28;20527;-70
2023/10/26 02:18:49;;;;;;;3.97;2.50;;;;;;;13.52;nan;99226.50;5010066;28;20034;-70
2023/10/26 02:21:14;;;;;;;6.15;2.50;;;;;;;13.50;nan;99223.31;5014508;28;20030;-71
2023/10/26 02:23:41;;;;;;;4.80;2.30;;;;;;;13.51;nan;99227.56;5013352;28;20040;-71
2023/10/26 02:26:06;;;;;;;6.70;2.70;;;;;;;13.53;nan;99228.09;5011681;28;20164;-72
2023/10/26 02:28:31;;;;;;;5.07;2.50;;;;;;;13.46;nan;99223.09;5015808;28;20100;-71
2023/10/26 02:30:57;;;;;;;4.35;2.15;;;;;;;13.32;nan;99217.59;5013158;28;20120;-72
2023/10/26 02:33:22;;;;;;;4.15;2.35;;;;;;;13.39;nan;99223.38;5017520;28;20141;-72
2023/10/26 02:35:48;;;;;;;5.15;2.50;;;;;;;13.39;nan;99215.44;5009488;28;20041;-72
2023/10/26 02:38:14;;;;;;;5.50;2.65;;;;;;;13.43;nan;99212.25;5013096;28;20100;-71
2023/10/26 02:40:39;;;;;;;10.45;2.70;;;;;;;13.29;nan;99202.28;5015091;28;20697;-72
2023/10/26 02:43:05;;;;;;;3.38;2.30;;;;;;;13.24;nan;99207.56;5014901;28;20026;-72
2023/10/26 02:45:31;;;;;;;4.15;2.40;;;;;;;13.17;nan;99207.84;5017431;28;20038;-70
2023/10/26 02:47:58;;;;;;;5.32;2.40;;;;;;;13.11;nan;99187.78;5014671;28;20578;-72
2023/10/26 02:50:24;;;;;;;5.57;2.70;;;;;;;12.47;nan;99093.44;5012528;28;20590;-70
2023/10/26 02:52:49;;;;;;;4.90;2.40;;;;;;;13.03;nan;99201.56;5016878;28;20109;-71
2023/10/26 02:55:15;;;;;;;5.22;2.70;;;;;;;13.06;nan;99202.88;5016716;28;20053;-71
2023/10/26 02:57:40;;;;;;;7.60;2.97;;;;;;;13.09;nan;99197.84;5015250;28;20033;-71
2023/10/26 03:00:06;;;;;;;6.57;2.63;;;;;;;12.97;nan;99182.28;5015054;28;20037;-71
2023/10/26 03:02:32;;;;;;;6.03;2.65;;;;;;;13.10;nan;99199.44;5016990;28;20029;-72
2023/10/26 03:04:58;;;;;;;6.15;2.58;;;;;;;13.04;nan;99191.78;5019434;28;20063;-72
2023/10/26 03:07:24;;;;;;;10.63;2.58;;;;;;;13.10;nan;99196.78;5023913;28;20048;-68
2023/10/26 03:09:50;;;;;;;4.60;2.65;;;;;;;13.05;nan;99185.44;5015091;28;20021;-69
2023/10/26 03:12:16;;;;;;;8.00;2.40;;;;;;;13.12;nan;99192.03;5019573;28;20034;-67
2023/10/26 03:14:41;;;;;;;6.72;2.42;;;;;;;12.96;nan;99172.78;5015884;28;20062;-68
2023/10/26 03:17:07;;;;;;;5.95;2.60;;;;;;;13.08;nan;99206.84;5017636;28;20590;-69
2023/10/26 03:19:32;;;;;;;7.78;2.50;;;;;;;12.95;nan;99200.28;5019695;28;20041;-68
2023/10/26 03:21:58;;;;;;;5.15;3.00;;;;;;;12.93;nan;99205.03;5017496;28;20022;-68
2023/10/26 03:24:24;;;;;;;6.60;2.97;;;;;;;12.95;nan;99218.78;5018772;28;20498;-69
2023/10/26 03:26:49;;;;;;;8.10;3.42;;;;;;;12.81;nan;99198.47;5018580;28;20731;-69
2023/10/26 03:29:14;;;;;;;10.73;3.97;;;;;;;12.81;nan;99196.63;5017653;28;20116;-68
2023/10/26 03:31:41;;;;;;;9.48;3.38;;;;;;;12.85;nan;99208.22;5019928;28;20026;-67
2023/10/26 03:34:07;;;;;;;7.88;3.33;;;;;;;12.77;nan;99204.28;5017427;28;20033;-69
2023/10/26 03:36:32;;;;;;;7.45;3.28;;;;;;;12.57;nan;99180.59;5024010;28;20042;-68
2023/10/26 03:38:58;;;;;;;4.55;2.97;;;;;;;12.76;nan;99204.53;5019385;28;20037;-68
2023/10/26 03:41:23;;;;;;;7.20;3.30;;;;;;;12.74;nan;99207.47;5017523;28;20447;-67
2023/10/26 03:43:49;;;;;;;7.78;3.10;;;;;;;12.74;nan;99217.25;5018541;28;20108;-69
2023/10/26 03:46:15;;;;;;;10.18;3.35;;;;;;;12.73;nan;99231.50;5017426;28;20038;-67
2023/10/26 03:48:40;;;;;;;5.93;3.40;;;;;;;12.66;nan;99215.94;5017746;28;20091;-67
2023/10/26 03:51:06;;;;;;;5.82;3.33;;;;;;;12.62;nan;99198.25;5019956;28;20022;-66
2023/10/26 03:53:31;;;;;;;5.63;3.05;;;;;;;12.69;nan;99212.78;5017143;28;20100;-67
2023/10/26 03:55:57;;;;;;;6.50;3.30;;;;;;;12.71;nan;99217.75;5015871;28;20025;-68
2023/10/26 03:58:23;;;;;;;7.15;3.60;;;;;;;12.67;nan;99209.59;5018204;28;20095;-67
2023/10/26 04:00:49;;;;;;;7.93;3.78;;;;;;;12.71;nan;99199.28;5018055;28;20026;-67
2023/10/26 04:03:14;;;;;;;11.15;3.70;;;;;;;12.71;nan;99197.44;5020170;28;20029;-67
2023/10/26 04:05:40;;;;;;;10.38;4.55;;;;;;;12.67;nan;99192.97;5016113;28;20396;-68
2023/10/26 04:08:07;;;;;;;15.38;5.97;;;;;;;12.77;nan;99214.06;5019005;28;20112;-71
2023/10/26 04:10:34;;;;;;;11.10;5.22;;;;;;;12.69;nan;99194.28;5018742;28;20029;-68
2023/10/26 04:12:59;;;;;;;14.60;5.13;;;;;;;12.69;nan;99180.25;5017803;28;20038;-67
2023/10/26 04:15:25;;;;;;;13.88;5.15;;;;;;;12.81;nan;99196.63;5018041;28;20464;-72
2023/10/26 04:17:50;;;;;;;14.82;5.63;;;;;;;12.85;nan;99202.16;5017793;28;20048;-71
2023/10/26 04:20:16;;;;;;;13.70;5.78;;;;;;;12.84;nan;99198.72;5017514;28;20423;-71
2023/10/26 04:22:41;;;;;;;13.20;5.63;;;;;;;12.81;nan;99196.63;5020876;28;20454;-71
2023/10/26 04:25:07;;;;;;;19.70;6.03;;;;;;;12.59;nan;99159.16;5016659;28;20025;-68
2023/10/26 04:27:32;;;;;;;12.38;5.80;;;;;;;12.89;nan;99204.00;5017686;28;20024;-68
2023/10/26 04:29:58;;;;;;;12.52;5.40;;;;;;;12.91;nan;99212.44;5017865;28;20113;-67
2023/10/26 04:32:23;;;;;;;13.02;5.82;;;;;;;12.87;nan;99200.81;5019170;28;20056;-67
2023/10/26 04:34:48;;;;;;;12.77;5.35;;;;;;;12.87;nan;99189.47;5016420;28;20451;-68
2023/10/26 04:37:14;;;;;;;18.25;5.75;;;;;;;12.92;nan;99192.88;5017220;28;20032;-68
2023/10/26 04:39:43;;;;;;;13.43;6.05;;;;;;;12.94;nan;99187.34;5016323;28;20372;-68
2023/10/26 04:42:09;;;;;;;11.38;6.50;;;;;;;12.95;nan;99186.25;5014467;28;20018;-68
2023/10/26 04:44:34;;;;;;;13.68;6.32;;;;;;;12.92;nan;99177.03;5018486;28;20426;-68
2023/10/26 04:46:59;;;;;;;14.52;6.55;;;;;;;13.02;nan;99188.63;5012166;28;20941;-69
2023/10/26 04:49:25;;;;;;;16.10;6.22;;;;;;;12.99;nan;99174.88;5017023;28;20022;-69
2023/10/26 04:51:50;;;;;;;15.13;6.28;;;;;;;12.95;nan;99167.75;5014289;28;20080;-68
2023/10/26 04:54:16;;;;;;;12.88;5.93;;;;;;;13.09;nan;99183.84;5019826;28;20033;-73
2023/10/26 04:56:42;;;;;;;16.08;5.72;;;;;;;13.11;nan;99193.06;5015148;28;20025;-74
2023/10/26 04:59:07;;;;;;;18.52;6.22;;;;;;;13.03;nan;99177.78;5014326;28;20106;-73
2023/10/26 05:01:33;;;;;;;17.70;6.50;;;;;;;13.06;nan;99187.03;5017269;28;20116;-74
2023/10/26 05:03:58;;;;;;;12.25;6.30;;;;;;;13.13;nan;99198.09;5018227;28;20147;-72
2023/10/26 05:06:24;;;;;;;13.38;6.57;;;;;;;13.10;nan;99193.34;5013911;28;20029;-74
2023/10/26 05:08:49;;;;;;;17.77;5.97;;;;;;;13.14;nan;99189.09;5015790;28;20387;-71
2023/10/26 05:11:15;;;;;;;16.88;6.43;;;;;;;13.19;nan;99197.00;5017120;28;20026;-72
2023/10/26 05:13:41;;;;;;;11.65;6.30;;;;;;;13.18;nan;99190.13;5013436;28;20045;-68
2023/10/26 05:16:06;;;;;;;15.75;5.85;;;;;;;13.29;nan;99199.66;5019028;28;20064;-66
2023/10/26 05:18:32;;;;;;;17.17;5.85;;;;;;;13.26;nan;99189.56;5017117;28;20031;-68
2023/10/26 05:20:59;;;;;;;15.18;6.15;;;;;;;13.32;nan;99196.44;5014678;28;20029;-69
2023/10/26 05:23:25;;;;;;;17.08;5.97;;;;;;;13.20;nan;99174.81;5016926;28;20075;-67
2023/10/26 05:25:50;;;;;;;14.48;6.32;;;;;;;13.37;nan;99195.63;5017505;28;20470;-69
2023/10/26 05:28:16;;;;;;;15.05;6.72;;;;;;;13.21;nan;99163.16;5017525;28;20125;-74
2023/10/26 05:30:41;;;;;;;18.60;5.85;;;;;;;13.36;nan;99200.13;5014200;28;20080;-73
2023/10/26 05:33:07;;;;;;;16.20;6.03;;;;;;;13.31;nan;99178.19;5017022;28;20052;-71
2023/10/26 05:35:32;;;;;;;95.75;15.88;;;;;;;13.48;nan;99199.00;5014103;28;20442;-70
2023/10/26 05:37:58;;;;;;;18.45;8.98;;;;;;;13.75;nan;99243.56;5018442;28;20571;-72
2023/10/26 05:40:23;;;;;;;16.80;6.05;;;;;;;13.54;nan;99209.28;5016046;28;20029;-71
2023/10/26 05:42:49;;;;;;;16.83;6.47;;;;;;;13.54;nan;99221.72;5015276;28;20029;-71
2023/10/26 05:45:15;;;;;;;19.10;6.47;;;;;;;13.50;nan;99210.09;5015682;28;20028;-72
2023/10/26 05:47:40;;;;;;;14.60;6.05;;;;;;;13.61;nan;99224.84;5016044;28;20467;-71
2023/10/26 05:50:07;;;;;;;14.10;5.70;;;;;;;13.58;nan;99212.97;5013115;28;20033;-68
2023/10/26 05:52:32;;;;;;;16.33;5.07;;;;;;;13.62;nan;99218.50;5016723;28;20102;-71
2023/10/26 05:54:58;;;;;;;12.52;5.95;;;;;;;13.61;nan;99212.41;5019328;28;20455;-72
2023/10/26 05:57:27;;;;;;;15.75;5.43;;;;;;;13.67;nan;99212.38;5014124;28;20041;-71
2023/10/26 05:59:53;;;;;;;16.35;5.60;;;;;;;13.75;nan;99223.19;5014544;28;20025;-72
2023/10/26 06:02:19;;;;;;;14.13;5.20;;;;;;;13.75;nan;99219.75;5014737;28;20017;-72
2023/10/26 06:04:44;;;;;;;16.60;5.07;;;;;;;13.78;nan;99219.19;5011884;28;20464;-72
2023/10/26 06:07:10;;;;;;;11.02;5.03;;;;;;;13.82;nan;99217.59;5012652;28;20460;-72
2023/10/26 06:09:35;;;;;;;13.82;5.28;;;;;;;13.80;nan;99217.06;5014386;28;20558;-71
2023/10/26 06:12:00;;;;;;;14.10;5.05;;;;;;;13.87;nan;99232.66;5015299;28;20080;-72
2023/10/26 06:14:26;;;;;;;15.90;5.70;;;;;;;13.92;nan;99229.97;5016461;28;20034;-73
2023/10/26 06:16:51;;;;;;;11.18;4.93;;;;;;;13.93;nan;99226.22;5013407;28;20467;-74
2023/10/26 06:19:16;;;;;;;12.70;4.63;;;;;;;13.97;nan;99235.22;5019573;28;20135;-74
2023/10/26 06:21:42;;;;;;;11.07;4.60;;;;;;;13.97;nan;99237.84;5015220;28;20053;-74
2023/10/26 06:24:07;;;;;;;16.65;5.32;;;;;;;13.96;nan;99233.66;5014019;28;20399;-73
2023/10/26 06:26:33;;;;;;;11.27;4.60;;;;;;;14.02;nan;99235.97;5013065;28;20026;-74
2023/10/26 06:28:59;;;;;;;13.23;4.20;;;;;;;14.09;nan;99246.25;5012605;28;20021;-73
2023/10/26 06:31:25;;;;;;;10.65;4.30;;;;;;;14.14;nan;99254.13;5016072;28;20112;-73
2023/10/26 06:33:51;;;;;;;18.50;4.75;;;;;;;14.16;nan;99243.28;5017476;28;20112;-73
2023/10/26 06:36:17;;;;;;;13.55;4.15;;;;;;;14.20;nan;99247.75;5015135;28;20076;-74
2023/10/26 06:38:42;;;;;;;14.88;4.45;;;;;;;14.22;nan;99250.91;5013128;28;20088;-74
2023/10/26 06:41:09;;;;;;;14.35;4.68;;;;;;;14.28;nan;99246.34;5018823;28;20061;-75
2023/10/26 06:43:36;;;;;;;8.95;4.10;;;;;;;14.26;nan;99245.84;5014793;28;20025;-74
2023/10/26 06:46:02;;;;;;;20.73;4.72;;;;;;;14.36;nan;99266.94;5017691;28;20664;-74
2023/10/26 06:48:28;;;;;;;13.95;4.40;;;;;;;14.27;nan;99242.16;5019994;28;20040;-74
2023/10/26 06:51:01;;;;;;;14.65;4.32;;;;;;;14.41;nan;99264.28;5016232;28;20025;-73
2023/10/26 06:53:27;;;;;;;11.45;4.63;;;;;;;14.43;nan;99264.75;5016600;28;20036;-73
2023/10/26 06:55:52;;;;;;;11.82;4.07;;;;;;;14.41;nan;99258.16;5018196;28;20431;-73
2023/10/26 06:58:18;;;;;;;12.10;4.00;;;;;;;14.49;nan;99275.34;5019879;28;20029;-74
2023/10/26 07:00:44;;;;;;;20.17;5.25;;;;;;;14.41;nan;99256.31;5017163;28;20022;-73
2023/10/26 07:03:09;;;;;;;16.58;4.07;;;;;;;14.48;nan;99261.28;5015903;28;20028;-74
2023/10/26 07:05:36;;;;;;;15.55;4.13;;;;;;;14.54;nan;99268.16;5015012;28;20029;-73
2023/10/26 07:08:01;;;;;;;18.77;4.25;;;;;;;14.58;nan;99274.50;5025147;28;20104;-71
2023/10/26 07:10:27;;;;;;;13.25;4.53;;;;;;;14.59;nan;99280.56;5018309;28;20105;-71
2023/10/26 07:12:52;;;;;;;10.90;3.78;;;;;;;14.67;nan;99279.94;5017827;28;20059;-71
2023/10/26 07:15:18;;;;;;;11.27;3.97;;;;;;;14.62;nan;99267.53;5019007;28;20034;-71
2023/10/26 07:17:43;;;;;;;13.77;4.35;;;;;;;14.71;nan;99267.72;5017161;28;20391;-72
2023/10/26 07:20:09;;;;;;;17.20;3.70;;;;;;;14.73;nan;99255.00;5016399;28;20132;-72
2023/10/26 07:22:35;;;;;;;11.93;3.97;;;;;;;;;;5016507;28;20014;-72
2023/10/26 07:25:01;;;;;;;13.98;4.10;;;;;;;;;;5020912;28;20028;-73
2023/10/26 07:27:27;;;;;;;15.65;3.58;;;;;;;;;;5019730;28;20527;-73
2023/10/26 07:29:52;;;;;;;13.38;3.75;;;;;;;;;;5019908;28;20104;-73
2023/10/26 07:32:18;;;;;;;14.80;4.23;;;;;;;15.06;nan;99287.78;5017101;28;20022;-73
2023/10/26 07:34:43;;;;;;;13.80;3.35;;;;;;;14.88;nan;99262.00;5013485;28;20060;-72
2023/10/26 07:37:08;;;;;;;9.45;4.00;;;;;;;14.91;nan;99276.56;5014389;28;20248;-72
2023/10/26 07:39:35;;;;;;;16.67;4.63;;;;;;;14.86;nan;99267.56;5018737;28;20034;-72
2023/10/26 07:42:01;;;;;;;13.93;4.20;;;;;;;14.97;nan;99276.22;5017500;28;20067;-71
2023/10/26 07:44:26;;;;;;;12.45;3.75;;;;;;;14.99;nan;99271.44;5018913;28;20480;-71
2023/10/26 07:46:52;;;;;;;12.48;4.60;;;;;;;14.96;nan;99260.59;5017396;28;20094;-72
2023/10/26 07:49:18;;;;;;;16.05;4.20;;;;;;;15.05;nan;99277.47;5024141;28;20500;-71
2023/10/26 07:51:43;;;;;;;14.88;4.50;;;;;;;14.99;nan;99260.03;5015357;28;20033;-72
2023/10/26 07:54:09;;;;;;;15.60;4.18;;;;;;;15.10;nan;99288.00;5016514;28;20029;-72
2023/10/26 07:56:35;;;;;;;13.10;4.05;;;;;;;15.03;nan;99280.38;5018949;28;20025;-72
2023/10/26 07:59:00;;;;;;;9.77;4.25;;;;;;;15.06;nan;99285.16;5017702;28;20029;-72
2023/10/26 08:01:26;;;;;;;14.30;4.68;;;;;;;15.16;nan;99294.06;5015234;28;20533;-72
2023/10/26 08:03:51;;;;;;;15.30;4.40;;;;;;;15.02;nan;99278.81;5018930;28;20021;-71
2023/10/26 08:06:16;;;;;;;10.15;3.92;;;;;;;15.15;nan;99287.16;5013928;28;20033;-72
2023/10/26 08:08:42;;;;;;;13.63;4.45;;;;;;;15.12;nan;99285.88;5014450;28;20029;-71
2023/10/26 08:11:11;;;;;;;11.32;3.60;;;;;;;15.26;nan;99328.41;5017720;28;20079;-71
2023/10/26 08:13:37;;;;;;;13.48;4.32;;;;;;;15.28;nan;99332.38;5017568;28;20560;-72
2023/10/26 08:16:02;;;;;;;11.13;4.07;;;;;;;15.30;nan;99310.88;5016754;28;20021;-72
2023/10/26 08:18:27;;;;;;;9.00;3.00;;;;;;;15.25;nan;99305.59;5015706;28;20028;-72
2023/10/26 08:20:53;;;;;;;11.68;3.50;;;;;;;15.28;nan;99320.97;5016261;28;20476;-72
2023/10/26 08:23:19;;;;;;;10.02;3.40;;;;;;;15.29;nan;99310.06;5012716;28;20036;-72
2023/10/26 08:25:45;;;;;;;14.70;3.63;;;;;;;15.23;nan;99292.66;5016387;28;20816;-72
2023/10/26 08:28:10;;;;;;;14.93;3.85;;;;;;;15.29;nan;99296.03;5019400;28;20098;-72
2023/10/26 08:30:37;;;;;;;18.55;5.18;;;;;;;15.23;nan;99290.00;5016842;28;20028;-72
2023/10/26 08:33:04;;;;;;;11.27;4.10;;;;;;;15.27;nan;99287.56;5014596;28;20088;-73
2023/10/26 08:35:33;;;;;;;13.13;3.83;;;;;;;15.32;nan;99293.59;5018604;28;20132;-74
2023/10/26 08:37:58;;;;;;;12.90;3.70;;;;;;;15.35;nan;99292.25;5014689;28;20100;-75
2023/10/26 08:40:24;;;;;;;15.35;4.22;;;;;;;15.31;nan;99292.00;5015119;28;20112;-73
2023/10/26 08:42:50;;;;;;;14.27;3.63;;;;;;;15.35;nan;99297.56;5016768;28;20026;-73
2023/10/26 08:45:27;;;;;;;11.13;3.30;;;;;;;15.24;nan;99264.25;5014331;28;20138;-72
2023/10/26 08:47:56;;;;;;;11.75;3.33;;;;;;;15.35;nan;99273.69;5015053;28;20114;-73
2023/10/26 08:50:23;;;;;;;9.43;3.30;;;;;;;15.40;nan;99273.63;5014521;28;20030;-73
2023/10/26 08:52:49;;;;;;;12.13;3.17;;;;;;;15.45;nan;99280.72;5017883;28;20033;-73
2023/10/26 08:55:15;;;;;;;11.32;3.72;;;;;;;15.46;nan;99274.34;5015445;28;20018;-72
2023/10/26 08:57:54;;;;;;;10.15;3.45;;;;;;;15.50;nan;99275.34;5013081;28;20033;-72
2023/10/26 09:00:21;;;;;;;11.63;4.32;;;;;;;15.51;nan;99275.06;5016537;28;20022;-72
2023/10/26 09:02:50;;;;;;;10.77;4.18;;;;;;;15.51;nan;99272.44;5012859;28;20034;-72
2023/10/26 09:05:15;;;;;;;12.10;3.63;;;;;;;15.53;nan;99267.59;5013788;28;20061;-73
2023/10/26 09:07:41;;;;;;;20.58;4.25;;;;;;;15.51;nan;99261.00;5014042;28;20068;-73
2023/10/26 09:10:07;;;;;;;19.60;3.90;;;;;;;15.52;nan;99260.72;5012847;28;20025;-74
2023/10/26 09:12:32;;;;;;;7.55;3.15;;;;;;;15.63;nan;99265.88;5016762;28;20664;-75
2023/10/26 09:15:08;;;;;;;10.73;3.67;;;;;;;15.69;nan;99280.69;5016568;28;20017;-73
2023/10/26 09:17:34;;;;;;;11.05;4.07;;;;;;;15.72;nan;99280.91;5017506;28;20014;-73
2023/10/26 09:20:17;;;;;;;13.23;3.55;;;;;;;15.74;nan;99278.78;5014303;28;20025;-73
2023/10/26 09:22:42;;;;;;;12.38;3.58;;;;;;;15.80;nan;99292.75;5015290;28;20039;-73
2023/10/26 09:25:09;;;;;;;9.68;2.70;;;;;;;15.85;nan;99284.75;5019513;28;20033;-74
2023/10/26 09:27:35;;;;;;;6.85;2.38;;;;;;;15.82;nan;99266.72;5016761;28;20476;-73
2023/10/26 09:30:01;;;;;;;8.32;2.53;;;;;;;15.83;nan;99264.88;5015282;28;20054;-72
2023/10/26 09:32:35;;;;;;;7.60;2.60;;;;;;;15.88;nan;99278.84;5014881;28;20079;-73
2023/10/26 09:35:01;;;;;;;10.40;3.03;;;;;;;15.93;nan;99285.97;5013764;28;20042;-73
2023/10/26 09:37:26;;;;;;;6.72;2.42;;;;;;;15.93;nan;99272.69;5014979;28;20487;-72
2023/10/26 09:39:52;;;;;;;8.77;2.63;;;;;;;15.88;nan;99270.88;5018124;28;20087;-73
2023/10/26 09:42:19;;;;;;;5.30;2.42;;;;;;;15.94;nan;99275.03;5015256;28;20018;-72
2023/10/26 09:44:45;;;;;;;9.88;2.47;;;;;;;15.98;nan;99274.47;5015548;28;20045;-74
2023/10/26 09:47:11;;;;;;;8.40;2.45;;;;;;;15.98;nan;99269.16;5013569;28;20025;-72
2023/10/26 09:49:37;;;;;;;7.05;2.50;;;;;;;15.96;nan;99269.44;5014835;28;20018;-73
2023/10/26 09:52:03;;;;;;;7.35;2.83;;;;;;;16.01;nan;99271.25;5013748;28;20025;-73
2023/10/26 09:54:33;;;;;;;7.22;2.13;;;;;;;15.97;nan;99260.41;5013994;28;20032;-73
2023/10/26 09:57:22;;;;;;;8.77;2.50;;;;;;;16.11;nan;99271.88;5014235;28;20029;-72
2023/10/26 09:59:51;;;;;;;6.95;2.40;;;;;;;16.15;nan;99272.09;5015001;28;20017;-72
2023/10/26 10:02:17;;;;;;;10.82;2.47;;;;;;;16.11;nan;99276.38;5012628;28;20032;-73
2023/10/26 10:04:44;;;;;;;9.48;2.28;;;;;;;16.13;nan;99280.31;5014764;28;20030;-74
2023/10/26 10:07:09;;;;;;;7.10;2.72;;;;;;;16.12;nan;99268.13;5013382;28;20075;-72
2023/10/26 10:10:13;;;;;;;7.10;2.45;;;;;;;16.22;nan;99274.38;5013792;28;20022;-72
2023/10/26 10:12:40;;;;;;;7.43;2.70;;;;;;;16.22;nan;99277.81;5002435;28;20117;-72
2023/10/26 10:15:07;;;;;;;7.88;2.80;;;;;;;16.24;nan;99277.53;5001606;28;20026;-73
2023/10/26 10:17:58;;;;;;;6.47;2.22;;;;;;;16.23;nan;99265.31;5002277;28;20557;-74
2023/10/26 10:20:28;;;;;;;6.38;2.47;;;;;;;16.23;nan;99270.63;4998538;28;20038;-73
2023/10/26 10:22:55;;;;;;;7.60;2.92;;;;;;;16.15;nan;99267.56;5002041;28;20030;-73
2023/10/26 10:25:23;;;;;;;10.10;2.50;;;;;;;16.18;nan;99271.50;4983011;28;20066;-73
2023/10/26 10:27:48;;;;;;;5.65;2.40;;;;;;;16.16;nan;99286.94;5001833;28;20541;-73
2023/10/26 10:30:16;;;;;;;9.75;2.10;;;;;;;16.04;nan;99273.31;4986802;28;20034;-73
2023/10/26 10:32:47;;;;;;;7.32;2.25;;;;;;;16.12;nan;99283.28;4979721;28;20034;-73
2023/10/26 10:35:21;;;;;;;7.25;2.05;;;;;;;16.09;nan;99284.66;5001557;28;20046;-73
2023/10/26 10:38:15;;;;;;;15.85;2.38;;;;;;;16.04;nan;99282.09;5002330;28;20160;-73
2023/10/26 10:41:05;;;;;;;8.60;2.10;;;;;;;15.79;nan;99248.72;5001611;28;20026;-72
2023/10/26 10:43:43;;;;;;;6.78;2.00;;;;;;;15.98;nan;99274.47;5010746;28;20121;-72
2023/10/26 10:46:29;;;;;;;6.93;1.98;;;;;;;15.96;nan;99277.41;5015047;28;20116;-72
2023/10/26 10:49:05;;;;;;;5.00;2.00;;;;;;;15.91;nan;99270.31;5011971;28;21042;-73
2023/10/26 10:51:38;;;;;;;6.35;1.88;;;;;;;15.70;nan;99237.16;5013529;28;20025;-73
2023/10/26 10:54:06;;;;;;;7.97;1.80;;;;;;;15.89;nan;99263.72;5018511;28;20037;-73
2023/10/26 10:56:40;;;;;;;4.72;1.75;;;;;;;15.81;nan;99257.19;5014538;28;20022;-73
2023/10/26 10:59:14;;;;;;;7.80;2.42;;;;;;;15.89;nan;99261.84;5013325;28;20723;-74
2023/10/26 11:01:39;;;;;;;5.72;1.80;;;;;;;15.60;nan;99218.72;5013378;28;20034;-74
2023/10/26 11:04:06;;;;;;;5.70;2.20;;;;;;;15.90;nan;99265.31;5016686;28;20030;-72
2023/10/26 11:06:32;;;;;;;5.97;2.55;;;;;;;15.86;nan;99270.38;5012539;28;20022;-73
2023/10/26 11:08:58;;;;;;;6.93;2.33;;;;;;;15.84;nan;99256.59;5013482;28;20040;-73
2023/10/26 11:11:28;;;;;;;5.32;1.75;;;;;;;15.83;nan;99255.03;5011198;28;20571;-73
2023/10/26 11:14:09;;;;;;;;;;;;;;;15.88;nan;99268.22;5016878;28;20026;-74
2023/10/26 11:16:36;;;;;;;5.63;1.80;;;;;;;15.82;nan;99257.97;5016222;28;19913;-75
2023/10/26 11:19:03;;;;;;;7.57;2.00;;;;;;;15.81;nan;99257.19;5010893;28;20029;-73
2023/10/26 11:21:28;;;;;;;7.25;2.67;;;;;;;15.81;nan;99257.19;5013297;28;20412;-73
2023/10/26 11:23:53;;;;;;;4.65;1.30;;;;;;;15.78;nan;99255.13;5019056;28;20021;-74
2023/10/26 11:26:19;;;;;;;4.45;1.70;;;;;;;15.44;nan;99216.28;5025100;28;20058;-74
2023/10/26 11:28:44;;;;;;;4.40;1.95;;;;;;;15.80;nan;99252.94;5016973;28;20029;-74
2023/10/26 11:31:10;;;;;;;3.70;1.70;;;;;;;15.80;nan;99246.84;5016425;28;20026;-74
2023/10/26 11:33:39;;;;;;;6.90;1.70;;;;;;;15.68;nan;99232.13;5016201;28;20566;-74
2023/10/26 11:36:12;;;;;;;6.45;1.63;;;;;;;15.70;nan;99224.66;5018666;28;20046;-74
2023/10/26 11:38:48;;;;;;;6.55;2.03;;;;;;;15.81;nan;99251.09;5018912;28;20924;-74
2023/10/26 11:41:23;;;;;;;5.05;2.00;;;;;;;15.81;nan;99240.47;5017438;28;20098;-75
2023/10/26 11:43:48;;;;;;;6.88;2.17;;;;;;;15.92;nan;99252.50;5017387;28;20029;-74
2023/10/26 11:46:14;;;;;;;4.20;1.95;;;;;;;15.72;nan;99213.78;5019074;28;20025;-75